Lontetree, Wyoming
Current Conditions -  °F | °C
As of 9:15 PM on Tuesday 21 Oct 2014 (Local Time) from KFBR Reporting Station
Overcast Overcast  
Wind Chill: 39°   Ceiling: 7000
Heat Index: 44°   Visibility: NA
Dew Point: 26°   Wind: 7mph
Humidity: 49%   Direction: 290°WNW
Pressure: 30.12"   Gusts: NA
Location:  41.04°N, 110.17°W
Report Text: KFBR 220315Z AUTO 29006KT SCT055 BKN070 OVC080 06/M04 A3012 RMK AO2 LTG DSNT S T00641036 PWINO
Loading
Personal Weather Stations






























Interactive Weather Map
Tropical Storm Tracking
New forecast layout! Learn more

10-Day Weather Forecast

Advertisements
Track Severe Weather on mobile